Volcanoville, California
Current Conditions -  °F | °C
As of 10:35 AM on Wednesday 26 Nov 2014 (Local Time) from KPVF Reporting Station
Clear Clear  
Wind Chill: 63°   Ceiling: Unl
Heat Index: 63°   Visibility: 10mi
Dew Point: 34°   Wind: 0mph
Humidity: 34%   Direction: NA
Pressure: 30.36"   Gusts: NA
Location:  38.9159°N, 120.725°W
Report Text: KPVF 261835Z AUTO 00000KT 10SM CLR 17/01 A3036 RMK AO1
Loading
Personal Weather Stations






























Interactive Weather Map New forecast layout! Learn more

10-Day Weather Forecast

Advertisements
Track Severe Weather on mobile